createdAt,value
2022-10-14T00:00:13.207Z,14.40
2022-10-14T00:02:41.069Z,14.40
2022-10-14T00:05:09.876Z,14.30
2022-10-14T00:07:37.784Z,14.40
2022-10-14T00:10:07.074Z,14.40
2022-10-14T00:12:35.054Z,14.40
2022-10-14T00:15:03.191Z,14.30
2022-10-14T00:17:32.389Z,14.30
2022-10-14T00:20:00.700Z,14.30
2022-10-14T00:22:28.517Z,14.30
2022-10-14T00:24:56.474Z,14.30
2022-10-14T00:27:24.379Z,14.30
2022-10-14T00:29:52.258Z,14.30
2022-10-14T00:32:20.089Z,14.40
2022-10-14T00:34:49.217Z,14.50
2022-10-14T00:37:17.060Z,14.50
2022-10-14T00:39:44.865Z,14.40
2022-10-14T00:42:15.088Z,14.50
2022-10-14T00:45:17.410Z,14.50
2022-10-14T00:47:45.731Z,14.40
2022-10-14T00:50:16.911Z,14.40
2022-10-14T00:52:45.275Z,14.30
2022-10-14T00:55:16.810Z,14.30
2022-10-14T00:57:45.392Z,14.30
2022-10-14T01:00:16.782Z,14.30
2022-10-14T01:02:44.741Z,14.20
2022-10-14T01:05:16.311Z,14.20
2022-10-14T01:08:03.928Z,14.10
2022-10-14T01:10:40.482Z,14.10
2022-10-14T01:13:18.581Z,14.00
2022-10-14T01:15:56.029Z,14.00
2022-10-14T01:18:37.890Z,14.00
2022-10-14T01:21:17.254Z,14.00
2022-10-14T01:24:12.420Z,14.00
2022-10-14T01:27:05.974Z,14.00
2022-10-14T01:30:09.547Z,14.00
2022-10-14T01:32:52.972Z,14.10
2022-10-14T01:35:30.046Z,14.00
2022-10-14T01:38:02.599Z,14.00
2022-10-14T01:40:36.686Z,14.00
2022-10-14T01:43:06.853Z,14.10
2022-10-14T01:45:37.358Z,14.10
2022-10-14T01:48:07.524Z,14.10
2022-10-14T01:50:37.161Z,14.10
2022-10-14T01:53:08.394Z,14.00
2022-10-14T01:55:40.139Z,13.90
2022-10-14T01:58:10.157Z,13.90
2022-10-14T02:00:38.771Z,13.90
2022-10-14T02:03:07.969Z,13.80
2022-10-14T02:05:42.491Z,13.80
2022-10-14T02:08:16.778Z,13.80
2022-10-14T02:10:59.539Z,13.80
2022-10-14T02:13:51.270Z,13.80
2022-10-14T02:16:28.020Z,13.80
2022-10-14T02:19:04.335Z,13.80
2022-10-14T02:21:38.276Z,13.80
2022-10-14T02:24:12.445Z,13.90
2022-10-14T02:26:41.659Z,13.90
2022-10-14T02:29:09.751Z,13.90
2022-10-14T02:31:40.103Z,13.90
2022-10-14T02:34:13.507Z,14.00
2022-10-14T02:36:42.796Z,13.80
2022-10-14T02:39:14.452Z,13.80
2022-10-14T02:41:42.643Z,13.90
2022-10-14T02:44:10.567Z,13.90
2022-10-14T02:46:41.081Z,13.90
2022-10-14T02:49:10.330Z,13.90
2022-10-14T02:51:38.247Z,13.90
2022-10-14T02:54:06.321Z,14.00
2022-10-14T02:56:34.159Z,14.00
2022-10-14T02:59:02.027Z,14.00
2022-10-14T03:01:32.671Z,13.90
2022-10-14T03:04:04.458Z,13.90
2022-10-14T03:06:33.635Z,13.90
2022-10-14T03:09:01.496Z,13.90
2022-10-14T03:11:29.294Z,13.90
2022-10-14T03:13:57.138Z,13.80
2022-10-14T03:16:24.965Z,13.90
2022-10-14T03:18:52.821Z,13.90
2022-10-14T03:21:21.423Z,13.90
2022-10-14T03:23:50.657Z,13.80
2022-10-14T03:26:18.555Z,13.70
2022-10-14T03:28:46.550Z,13.70
2022-10-14T03:31:14.456Z,13.70
2022-10-14T03:33:42.469Z,13.60
2022-10-14T03:36:10.497Z,13.60
2022-10-14T03:38:38.388Z,13.60
2022-10-14T03:41:07.674Z,13.60
2022-10-14T03:43:35.517Z,13.70
2022-10-14T03:46:03.356Z,13.70
2022-10-14T03:48:31.226Z,13.70
2022-10-14T03:50:59.093Z,13.80
2022-10-14T03:53:26.981Z,13.70
2022-10-14T03:55:54.805Z,13.70
2022-10-14T03:58:24.051Z,13.60
2022-10-14T04:00:51.919Z,13.70
2022-10-14T04:03:19.792Z,13.60
2022-10-14T04:05:47.619Z,13.60
2022-10-14T04:08:15.431Z,13.60
2022-10-14T04:10:43.263Z,13.60
2022-10-14T04:13:11.185Z,13.50
2022-10-14T04:15:40.372Z,13.50
2022-10-14T04:18:08.203Z,13.60
2022-10-14T04:20:36.024Z,13.60
2022-10-14T04:23:04.437Z,13.60
2022-10-14T04:25:32.361Z,13.60
2022-10-14T04:28:00.188Z,13.60
2022-10-14T04:30:28.459Z,13.60
2022-10-14T04:32:57.661Z,13.50
2022-10-14T04:35:25.514Z,13.70
2022-10-14T04:37:53.364Z,13.60
2022-10-14T04:40:25.537Z,13.60
2022-10-14T04:42:57.211Z,13.70
2022-10-14T04:45:25.817Z,13.70
2022-10-14T04:47:53.870Z,13.70
2022-10-14T04:50:23.084Z,13.60
2022-10-14T04:52:50.867Z,13.60
2022-10-14T04:55:18.948Z,13.70
2022-10-14T04:57:46.775Z,13.80
2022-10-14T05:00:16.030Z,13.80
2022-10-14T05:02:43.960Z,13.80
2022-10-14T05:05:11.920Z,13.90
2022-10-14T05:07:41.275Z,13.90
2022-10-14T05:10:10.723Z,13.80
2022-10-14T05:12:39.641Z,13.80
2022-10-14T05:15:08.512Z,13.80
2022-10-14T05:17:37.858Z,13.90
2022-10-14T05:20:06.562Z,13.80
2022-10-14T05:22:34.731Z,13.80
2022-10-14T05:25:03.993Z,13.80
2022-10-14T05:27:31.879Z,13.80
2022-10-14T05:29:59.677Z,13.80
2022-10-14T05:32:27.684Z,13.80
2022-10-14T05:34:55.464Z,13.90
2022-10-14T05:37:23.280Z,13.80
2022-10-14T05:39:51.194Z,13.90
2022-10-14T05:42:20.734Z,13.80
2022-10-14T05:44:48.675Z,13.70
2022-10-14T05:47:16.727Z,13.70
2022-10-14T05:49:44.699Z,13.80
2022-10-14T05:52:12.520Z,13.80
2022-10-14T05:54:40.328Z,13.90
2022-10-14T05:57:08.248Z,14.00
2022-10-14T05:59:37.482Z,14.00
2022-10-14T06:02:05.338Z,14.00
2022-10-14T06:04:33.252Z,13.90
2022-10-14T06:07:01.068Z,13.90
2022-10-14T06:09:31.138Z,13.90
2022-10-14T06:11:59.046Z,13.90
2022-10-14T06:14:26.945Z,13.90
2022-10-14T06:16:56.282Z,13.80
2022-10-14T06:19:24.126Z,13.80
2022-10-14T06:21:51.951Z,13.80
2022-10-14T06:24:19.740Z,13.70
2022-10-14T06:26:48.410Z,13.80
2022-10-14T06:29:16.448Z,13.80
2022-10-14T06:31:44.684Z,13.80
2022-10-14T06:34:13.874Z,13.90
2022-10-14T06:36:41.716Z,13.90
2022-10-14T06:39:10.889Z,13.90
2022-10-14T06:41:38.779Z,14.00
2022-10-14T06:44:06.625Z,13.90
2022-10-14T06:46:34.460Z,14.00
2022-10-14T06:49:02.252Z,14.00
2022-10-14T06:51:31.435Z,14.00
2022-10-14T06:53:59.277Z,14.00
2022-10-14T06:56:27.387Z,14.00
2022-10-14T06:58:55.662Z,14.00
2022-10-14T07:01:23.932Z,13.90
2022-10-14T07:03:54.295Z,14.00
2022-10-14T07:06:24.521Z,14.00
2022-10-14T07:08:54.015Z,14.10
2022-10-14T07:11:22.197Z,14.10
2022-10-14T07:13:50.005Z,14.10
2022-10-14T07:16:17.848Z,14.10
2022-10-14T07:18:45.675Z,14.20
2022-10-14T07:21:13.539Z,14.20
2022-10-14T07:23:41.507Z,14.20
2022-10-14T07:26:10.713Z,14.30
2022-10-14T07:28:38.887Z,14.30
2022-10-14T07:31:09.812Z,14.40
2022-10-14T07:33:39.237Z,14.40
2022-10-14T07:36:09.782Z,14.50
2022-10-14T07:38:38.157Z,14.50
2022-10-14T07:41:08.606Z,14.60
2022-10-14T07:43:37.769Z,14.50
2022-10-14T07:46:08.299Z,14.50
2022-10-14T07:48:55.815Z,14.60
2022-10-14T07:51:24.523Z,14.50
2022-10-14T07:53:53.004Z,14.60
2022-10-14T07:56:23.314Z,14.50
2022-10-14T07:58:52.517Z,14.60
2022-10-14T08:01:20.485Z,14.60
2022-10-14T08:03:49.814Z,14.70
2022-10-14T08:06:17.805Z,14.70
2022-10-14T08:08:45.602Z,14.70
2022-10-14T08:11:15.945Z,14.70
2022-10-14T08:13:46.217Z,14.70
2022-10-14T08:16:17.972Z,14.70
2022-10-14T08:18:46.025Z,14.80
2022-10-14T08:21:14.375Z,14.80
2022-10-14T08:23:42.261Z,14.80
2022-10-14T08:26:20.872Z,14.90
2022-10-14T08:28:49.645Z,15.00
2022-10-14T08:31:19.352Z,15.00
2022-10-14T08:33:47.223Z,15.00
2022-10-14T08:36:16.086Z,15.10
2022-10-14T08:38:43.895Z,15.20
2022-10-14T08:41:27.661Z,15.30
2022-10-14T08:44:12.298Z,15.30
2022-10-14T08:46:49.488Z,15.40
2022-10-14T08:49:25.107Z,15.60
2022-10-14T08:51:57.432Z,15.70
2022-10-14T08:54:33.321Z,16.00
2022-10-14T08:57:01.959Z,16.20
2022-10-14T08:59:30.115Z,16.30
2022-10-14T09:02:05.312Z,16.30
2022-10-14T09:04:36.379Z,16.40
2022-10-14T09:07:05.300Z,16.70
2022-10-14T09:09:40.360Z,16.80
2022-10-14T09:12:14.283Z,16.80
2022-10-14T09:14:48.206Z,16.80
2022-10-14T09:17:23.067Z,16.80
2022-10-14T09:19:55.419Z,16.90
2022-10-14T09:22:24.953Z,17.00
2022-10-14T09:24:52.826Z,17.00
2022-10-14T09:27:22.615Z,17.20
2022-10-14T09:29:54.780Z,17.20
2022-10-14T09:32:29.489Z,17.20
2022-10-14T09:34:58.847Z,17.20
2022-10-14T09:37:29.127Z,17.30
2022-10-14T09:40:05.785Z,17.20
2022-10-14T09:42:43.612Z,17.10
2022-10-14T09:45:13.109Z,17.10
2022-10-14T09:47:47.493Z,17.20
2022-10-14T09:50:23.573Z,17.30
2022-10-14T09:52:56.423Z,17.30
2022-10-14T09:55:25.431Z,17.30
2022-10-14T09:58:04.309Z,17.40
2022-10-14T10:00:33.730Z,17.50
2022-10-14T10:03:03.009Z,17.50
2022-10-14T10:05:33.142Z,17.50
2022-10-14T10:08:03.653Z,17.50
2022-10-14T10:10:34.776Z,17.50
2022-10-14T10:13:03.383Z,17.60
2022-10-14T10:15:31.349Z,17.60
2022-10-14T10:17:59.220Z,17.60
2022-10-14T10:20:33.042Z,17.70
2022-10-14T10:23:25.262Z,17.60
2022-10-14T10:25:53.656Z,17.60
2022-10-14T10:28:32.081Z,17.70
2022-10-14T10:31:07.866Z,17.70
2022-10-14T10:33:47.183Z,17.70
2022-10-14T10:36:23.908Z,17.80
2022-10-14T10:39:00.311Z,17.80
2022-10-14T10:41:41.287Z,17.90
2022-10-14T10:44:34.703Z,17.90
2022-10-14T10:47:20.489Z,18.00
2022-10-14T10:50:04.682Z,18.00
2022-10-14T10:52:46.008Z,18.00
2022-10-14T10:55:24.150Z,17.90
2022-10-14T10:58:06.158Z,18.00
2022-10-14T11:00:46.419Z,18.00
2022-10-14T11:03:36.730Z,18.00
2022-10-14T11:06:11.616Z,18.10
2022-10-14T11:09:13.732Z,18.10
2022-10-14T11:12:07.620Z,18.00
2022-10-14T11:14:54.106Z,18.10
2022-10-14T11:17:28.401Z,18.10
2022-10-14T11:20:05.340Z,18.00
2022-10-14T11:22:52.161Z,18.10
2022-10-14T11:25:33.092Z,18.10
2022-10-14T11:28:10.531Z,18.10
2022-10-14T11:30:45.161Z,18.10
2022-10-14T11:33:30.344Z,18.10
2022-10-14T11:36:11.469Z,18.10
2022-10-14T11:38:49.753Z,18.20
2022-10-14T11:41:26.284Z,18.20
2022-10-14T11:44:04.780Z,18.20
2022-10-14T11:46:37.556Z,18.30
2022-10-14T11:49:12.101Z,18.30
2022-10-14T11:51:43.611Z,18.40
2022-10-14T11:54:16.860Z,18.40
2022-10-14T11:56:54.643Z,18.40
2022-10-14T11:59:36.712Z,18.40
2022-10-14T12:02:18.859Z,18.30
2022-10-14T12:04:53.020Z,18.40
2022-10-14T12:07:26.097Z,18.30
2022-10-14T12:09:59.966Z,18.30
2022-10-14T12:12:31.547Z,18.20
2022-10-14T12:15:02.411Z,18.10
2022-10-14T12:17:35.212Z,18.10
2022-10-14T12:20:17.986Z,18.10
2022-10-14T12:22:49.036Z,18.20
2022-10-14T12:25:21.717Z,18.20
2022-10-14T12:27:52.292Z,18.10
2022-10-14T12:30:38.252Z,18.10
2022-10-14T12:33:08.244Z,18.00
2022-10-14T12:35:59.024Z,18.00
2022-10-14T12:38:28.964Z,17.90
2022-10-14T12:41:18.677Z,17.80
2022-10-14T12:44:00.949Z,17.80
2022-10-14T12:46:31.008Z,17.80
2022-10-14T12:48:59.721Z,17.80
2022-10-14T12:51:28.087Z,17.80
2022-10-14T12:54:05.598Z,17.80
2022-10-14T12:56:45.506Z,17.90
2022-10-14T12:59:25.436Z,17.90
2022-10-14T13:01:59.051Z,17.80
2022-10-14T13:04:27.626Z,17.70
2022-10-14T13:07:40.282Z,17.80
2022-10-14T13:10:48.266Z,17.80
2022-10-14T13:13:53.378Z,17.80
2022-10-14T13:17:03.648Z,17.70
2022-10-14T13:19:47.050Z,17.60
2022-10-14T13:22:40.188Z,17.60
2022-10-14T13:25:17.142Z,17.70
2022-10-14T13:27:57.175Z,17.50
2022-10-14T13:30:34.241Z,17.60
2022-10-14T13:33:10.110Z,17.60
2022-10-14T13:35:51.783Z,17.60
2022-10-14T13:38:23.650Z,17.60
2022-10-14T13:40:53.857Z,17.60
2022-10-14T13:43:27.085Z,17.50
2022-10-14T13:45:59.495Z,17.50
2022-10-14T13:48:33.202Z,17.60
2022-10-14T13:51:36.270Z,17.50
2022-10-14T13:54:16.221Z,17.50
2022-10-14T13:56:44.598Z,17.50
2022-10-14T13:59:43.136Z,17.40
2022-10-14T14:02:15.528Z,17.50
2022-10-14T14:04:49.112Z,17.50
2022-10-14T14:08:14.169Z,17.50
2022-10-14T14:10:12.198Z,17.50
2022-10-14T14:12:43.979Z,17.40
2022-10-14T14:15:20.438Z,17.40
2022-10-14T14:17:49.342Z,17.40
2022-10-14T14:20:21.429Z,17.40
2022-10-14T14:22:51.223Z,17.40
2022-10-14T14:25:35.294Z,17.40
2022-10-14T14:28:05.989Z,17.40
2022-10-14T14:30:35.942Z,17.30
2022-10-14T14:33:06.015Z,17.30
2022-10-14T14:35:33.916Z,17.30
2022-10-14T14:38:03.535Z,17.20
2022-10-14T14:40:32.332Z,17.30
2022-10-14T14:43:02.948Z,17.20
2022-10-14T14:45:32.831Z,17.20
2022-10-14T14:48:07.383Z,17.20
2022-10-14T14:50:38.515Z,17.20
2022-10-14T14:53:12.885Z,17.20
2022-10-14T14:55:45.420Z,17.20
2022-10-14T14:58:25.893Z,17.10
2022-10-14T15:00:54.947Z,17.10
2022-10-14T15:03:24.680Z,17.10
2022-10-14T15:05:56.989Z,17.00
2022-10-14T15:08:28.907Z,17.00
2022-10-14T15:10:58.463Z,17.10
2022-10-14T15:13:29.018Z,17.10
2022-10-14T15:15:56.999Z,17.10
2022-10-14T15:18:28.122Z,17.10
2022-10-14T15:21:07.621Z,17.10
2022-10-14T15:24:00.325Z,17.00
2022-10-14T15:26:34.804Z,17.10
2022-10-14T15:29:14.623Z,17.10
2022-10-14T15:31:44.632Z,17.10
2022-10-14T15:34:21.346Z,17.10
2022-10-14T15:36:52.308Z,17.00
2022-10-14T15:39:22.596Z,17.00
2022-10-14T15:41:50.715Z,17.00
2022-10-14T15:44:18.581Z,16.80
2022-10-14T15:47:04.856Z,16.70
2022-10-14T15:49:34.870Z,16.70
2022-10-14T15:52:02.833Z,16.50
2022-10-14T15:54:32.051Z,16.50
2022-10-14T15:57:00.754Z,16.40
2022-10-14T15:59:28.600Z,16.30
2022-10-14T16:01:56.567Z,16.40
2022-10-14T16:04:27.794Z,16.40
2022-10-14T16:06:57.646Z,16.20
2022-10-14T16:09:27.571Z,16.10
2022-10-14T16:11:59.543Z,16.00
2022-10-14T16:14:28.112Z,16.00
2022-10-14T16:16:56.386Z,16.00
2022-10-14T16:19:25.338Z,16.00
2022-10-14T16:21:53.174Z,16.00
2022-10-14T16:24:25.363Z,16.00
2022-10-14T16:26:53.984Z,15.90
2022-10-14T16:29:23.355Z,15.70
2022-10-14T16:31:52.390Z,15.80
2022-10-14T16:34:21.517Z,15.80
2022-10-14T16:36:49.990Z,15.80
2022-10-14T16:39:18.973Z,15.80
2022-10-14T16:41:47.154Z,15.60
2022-10-14T16:44:25.252Z,15.60
2022-10-14T16:47:12.975Z,15.60
2022-10-14T16:49:41.078Z,15.50
2022-10-14T16:52:09.627Z,15.60
2022-10-14T16:54:38.079Z,15.60
2022-10-14T16:57:06.789Z,15.70
2022-10-14T16:59:34.656Z,15.60
2022-10-14T17:02:04.436Z,15.60
2022-10-14T17:04:33.493Z,15.50
2022-10-14T17:07:06.982Z,15.40
2022-10-14T17:09:36.049Z,15.50
2022-10-14T17:12:08.143Z,15.40
2022-10-14T17:14:39.278Z,15.40
2022-10-14T17:17:08.823Z,15.40
2022-10-14T17:19:36.604Z,15.50
2022-10-14T17:22:04.422Z,15.60
2022-10-14T17:24:32.235Z,15.70
2022-10-14T17:27:04.406Z,15.80
2022-10-14T17:29:32.480Z,15.70
2022-10-14T17:32:00.325Z,15.70
2022-10-14T17:34:29.580Z,15.80
2022-10-14T17:36:59.486Z,15.80
2022-10-14T17:39:29.389Z,15.80
2022-10-14T17:41:57.521Z,15.90
2022-10-14T17:44:25.707Z,15.90
2022-10-14T17:46:54.056Z,15.90
2022-10-14T17:49:22.124Z,15.90
2022-10-14T17:51:51.314Z,15.90
2022-10-14T17:54:19.316Z,16.00
2022-10-14T17:56:47.203Z,15.90
2022-10-14T17:59:14.992Z,15.80
2022-10-14T18:02:01.457Z,15.80
2022-10-14T18:04:30.250Z,15.90
2022-10-14T18:06:59.556Z,15.80
2022-10-14T18:09:27.361Z,15.70
2022-10-14T18:12:08.258Z,15.60
2022-10-14T18:14:37.541Z,15.50
2022-10-14T18:17:05.763Z,15.50
2022-10-14T18:19:33.816Z,15.60
2022-10-14T18:22:03.276Z,15.50
2022-10-14T18:24:31.075Z,15.60
2022-10-14T18:26:58.887Z,15.60
2022-10-14T18:29:26.793Z,15.50
2022-10-14T18:31:54.622Z,15.50
2022-10-14T18:34:24.864Z,15.50
2022-10-14T18:36:52.710Z,15.40
2022-10-14T18:39:22.051Z,15.40
2022-10-14T18:41:50.128Z,15.50
2022-10-14T18:44:18.121Z,15.40
2022-10-14T18:46:47.444Z,15.40
2022-10-14T18:49:15.436Z,15.50
2022-10-14T18:51:43.301Z,15.50
2022-10-14T18:54:14.946Z,15.60
2022-10-14T18:56:45.505Z,15.60
2022-10-14T18:59:17.669Z,15.60
2022-10-14T19:01:45.981Z,15.70
2022-10-14T19:04:16.031Z,15.60
2022-10-14T19:06:45.861Z,15.70
2022-10-14T19:09:14.406Z,15.70
2022-10-14T19:11:44.611Z,15.70
2022-10-14T19:14:14.230Z,15.70
2022-10-14T19:16:42.711Z,15.80
2022-10-14T19:19:15.103Z,15.80
2022-10-14T19:21:43.370Z,15.70
2022-10-14T19:24:13.307Z,15.80
2022-10-14T19:26:44.622Z,15.80
2022-10-14T19:29:14.172Z,15.80
2022-10-14T19:31:42.249Z,15.80
2022-10-14T19:34:12.879Z,15.70
2022-10-14T19:36:41.728Z,15.80
2022-10-14T19:39:13.003Z,15.80
2022-10-14T19:41:43.213Z,15.70
2022-10-14T19:44:13.369Z,15.70
2022-10-14T19:46:41.539Z,15.70
2022-10-14T19:49:11.540Z,15.70
2022-10-14T19:51:39.747Z,15.80
2022-10-14T19:54:08.186Z,15.80
2022-10-14T19:56:36.043Z,15.80
2022-10-14T19:59:03.880Z,15.80
2022-10-14T20:01:33.230Z,15.80
2022-10-14T20:04:02.671Z,15.80
2022-10-14T20:06:34.285Z,15.70
2022-10-14T20:09:02.272Z,15.80
2022-10-14T20:11:30.755Z,15.80
2022-10-14T20:13:58.594Z,15.80
2022-10-14T20:16:27.127Z,15.90
2022-10-14T20:18:56.673Z,15.90
2022-10-14T20:21:24.707Z,15.90
2022-10-14T20:23:52.576Z,15.90
2022-10-14T20:26:22.557Z,16.00
2022-10-14T20:28:51.081Z,16.00
2022-10-14T20:31:21.826Z,16.00
2022-10-14T20:33:49.920Z,16.00
2022-10-14T20:36:20.845Z,16.00
2022-10-14T20:38:49.740Z,16.00
2022-10-14T20:41:19.489Z,16.00
2022-10-14T20:43:47.830Z,16.00
2022-10-14T20:46:16.046Z,16.10
2022-10-14T20:48:44.316Z,16.00
2022-10-14T20:51:14.153Z,16.00
2022-10-14T20:53:43.357Z,16.00
2022-10-14T20:56:14.014Z,16.10
2022-10-14T20:58:42.462Z,16.10
2022-10-14T21:01:12.384Z,16.10
2022-10-14T21:03:40.732Z,16.10
2022-10-14T21:06:10.651Z,16.10
2022-10-14T21:08:38.994Z,16.00
2022-10-14T21:11:13.818Z,16.10
2022-10-14T21:13:45.394Z,16.20
2022-10-14T21:16:20.249Z,16.20
2022-10-14T21:18:49.112Z,16.10
2022-10-14T21:21:18.715Z,16.10
2022-10-14T21:23:46.675Z,16.20
2022-10-14T21:26:16.122Z,16.20
2022-10-14T21:28:44.228Z,16.20
2022-10-14T21:31:17.368Z,16.20
2022-10-14T21:33:47.070Z,16.30
2022-10-14T21:36:17.116Z,16.30
2022-10-14T21:38:45.235Z,16.30
2022-10-14T21:41:14.851Z,16.30
2022-10-14T21:43:43.351Z,16.30
2022-10-14T21:46:12.826Z,16.30
2022-10-14T21:48:41.149Z,16.30
2022-10-14T21:51:11.311Z,16.30
2022-10-14T21:53:40.236Z,16.30
2022-10-14T21:56:08.630Z,16.30
2022-10-14T21:58:38.043Z,16.30
2022-10-14T22:01:08.432Z,16.30
2022-10-14T22:03:36.808Z,16.20
2022-10-14T22:06:07.549Z,16.30
2022-10-14T22:08:36.984Z,16.20
2022-10-14T22:11:05.826Z,16.20
2022-10-14T22:13:37.718Z,16.30
2022-10-14T22:16:05.823Z,16.40
2022-10-14T22:18:33.673Z,16.30
2022-10-14T22:21:04.998Z,16.30
2022-10-14T22:23:33.127Z,16.30
2022-10-14T22:26:02.756Z,16.30
2022-10-14T22:28:31.568Z,16.30
2022-10-14T22:31:06.411Z,16.30
2022-10-14T22:33:36.085Z,16.30
2022-10-14T22:36:08.996Z,16.30
2022-10-14T22:38:37.488Z,16.30
2022-10-14T22:41:06.380Z,16.30
2022-10-14T22:43:34.694Z,16.30
2022-10-14T22:46:02.834Z,16.30
2022-10-14T22:48:32.878Z,16.30
2022-10-14T22:51:03.480Z,16.30
2022-10-14T22:53:31.694Z,16.20
2022-10-14T22:55:59.850Z,16.30
2022-10-14T22:58:28.070Z,16.20
2022-10-14T23:00:55.900Z,16.20
2022-10-14T23:03:23.746Z,16.20
2022-10-14T23:05:52.923Z,16.20
2022-10-14T23:08:21.129Z,16.30
2022-10-14T23:10:48.965Z,16.30
2022-10-14T23:13:16.793Z,16.30
2022-10-14T23:15:44.626Z,16.30
2022-10-14T23:18:12.429Z,16.30
2022-10-14T23:20:40.259Z,16.30
2022-10-14T23:23:09.411Z,16.30
2022-10-14T23:25:41.206Z,16.30
2022-10-14T23:28:09.616Z,16.30
2022-10-14T23:30:37.523Z,16.30
2022-10-14T23:33:05.808Z,16.30
2022-10-14T23:35:36.467Z,16.20
2022-10-14T23:38:04.244Z,16.20
2022-10-14T23:40:33.461Z,16.30
2022-10-14T23:43:01.516Z,16.30
2022-10-14T23:45:29.370Z,16.20
2022-10-14T23:47:57.208Z,16.20
2022-10-14T23:50:25.054Z,16.20
2022-10-14T23:52:52.887Z,16.20
2022-10-14T23:55:20.729Z,16.20
2022-10-14T23:57:49.930Z,16.30
